createdAt,value
2022-12-26T00:01:15.083Z,6.33
2022-12-26T00:03:36.596Z,6.90
2022-12-26T00:05:58.268Z,6.03
2022-12-26T00:08:19.609Z,6.23
2022-12-26T00:10:40.929Z,5.80
2022-12-26T00:13:39.231Z,5.73
2022-12-26T00:15:43.630Z,5.27
2022-12-26T00:18:06.370Z,4.70
2022-12-26T00:20:27.581Z,4.97
2022-12-26T00:22:48.959Z,5.30
2022-12-26T00:25:10.402Z,4.93
2022-12-26T00:27:31.572Z,5.40
2022-12-26T00:29:52.902Z,4.80
2022-12-26T00:32:14.251Z,5.03
2022-12-26T00:34:36.961Z,5.10
2022-12-26T00:36:58.099Z,5.20
2022-12-26T00:39:19.491Z,4.90
2022-12-26T00:41:40.637Z,4.70
2022-12-26T00:44:01.903Z,5.37
2022-12-26T00:46:23.224Z,5.53
2022-12-26T00:48:44.638Z,6.03
2022-12-26T00:51:06.978Z,5.97
2022-12-26T00:53:28.567Z,5.83
2022-12-26T00:55:50.447Z,6.00
2022-12-26T00:58:11.539Z,5.83
2022-12-26T01:00:33.353Z,5.93
2022-12-26T01:02:55.224Z,5.50
2022-12-26T01:05:17.419Z,5.63
2022-12-26T01:08:21.255Z,6.03
2022-12-26T01:10:21.947Z,6.37
2022-12-26T01:12:42.915Z,5.90
2022-12-26T01:15:05.267Z,5.50
2022-12-26T01:17:26.585Z,5.50
2022-12-26T01:19:47.585Z,5.33
2022-12-26T01:22:08.704Z,5.47
2022-12-26T01:24:31.219Z,5.07
2022-12-26T01:26:52.593Z,6.23
2022-12-26T01:29:13.726Z,5.77
2022-12-26T01:31:35.030Z,5.63
2022-12-26T01:33:56.268Z,5.27
2022-12-26T01:36:17.922Z,4.40
2022-12-26T01:38:39.287Z,5.07
2022-12-26T01:41:20.267Z,6.10
2022-12-26T01:43:48.652Z,5.20
2022-12-26T01:46:10.427Z,5.77
2022-12-26T01:48:34.410Z,5.80
2022-12-26T01:50:57.918Z,6.47
2022-12-26T01:53:21.677Z,5.50
2022-12-26T01:55:44.396Z,4.23
2022-12-26T01:58:09.305Z,4.43
2022-12-26T02:00:30.286Z,5.27
2022-12-26T02:03:09.274Z,5.43
2022-12-26T02:05:35.059Z,10.13
2022-12-26T02:07:55.854Z,6.40
2022-12-26T02:10:18.732Z,8.60
2022-12-26T02:12:41.083Z,12.80
2022-12-26T02:15:04.746Z,8.40
2022-12-26T02:17:26.943Z,7.60
2022-12-26T02:19:51.819Z,8.00
2022-12-26T02:22:22.905Z,7.10
2022-12-26T02:24:51.474Z,6.10
2022-12-26T02:27:42.873Z,6.77
2022-12-26T02:30:13.990Z,6.60
2022-12-26T02:32:49.807Z,8.43
2022-12-26T02:35:16.884Z,6.90
2022-12-26T02:37:44.116Z,5.63
2022-12-26T02:40:12.958Z,5.73
2022-12-26T02:42:39.077Z,5.63
2022-12-26T02:45:20.864Z,5.27
2022-12-26T02:47:43.601Z,5.90
2022-12-26T02:50:28.515Z,6.40
2022-12-26T02:53:18.347Z,7.83
2022-12-26T02:56:00.114Z,6.50
2022-12-26T02:58:40.533Z,6.53
2022-12-26T03:01:20.783Z,6.33
2022-12-26T03:04:00.107Z,6.17
2022-12-26T03:06:36.793Z,6.50
2022-12-26T03:09:19.417Z,6.20
2022-12-26T03:11:58.702Z,5.10
2022-12-26T03:14:21.795Z,6.13
2022-12-26T03:17:01.103Z,5.70
2022-12-26T03:19:22.836Z,5.93
2022-12-26T03:21:45.916Z,5.80
2022-12-26T03:24:10.816Z,6.73
2022-12-26T03:26:41.889Z,7.03
2022-12-26T03:29:19.157Z,6.17
2022-12-26T03:31:40.452Z,6.10
2022-12-26T03:34:20.608Z,5.83
2022-12-26T03:36:45.026Z,6.00
2022-12-26T03:39:12.232Z,6.07
2022-12-26T03:41:54.986Z,6.60
2022-12-26T03:44:41.306Z,5.50
2022-12-26T03:47:24.651Z,6.00
2022-12-26T03:50:04.471Z,6.50
2022-12-26T03:52:45.512Z,5.80
2022-12-26T03:55:29.045Z,5.90
2022-12-26T03:58:11.326Z,5.93
2022-12-26T04:00:51.039Z,5.33
2022-12-26T04:03:31.670Z,4.73
2022-12-26T04:06:11.508Z,5.40
2022-12-26T04:09:01.007Z,5.67
2022-12-26T04:11:41.597Z,5.90
2022-12-26T04:14:22.891Z,7.87
2022-12-26T04:17:04.871Z,6.03
2022-12-26T04:19:33.304Z,5.23
2022-12-26T04:22:13.963Z,5.73
2022-12-26T04:24:53.829Z,5.67
2022-12-26T04:27:35.068Z,5.13
2022-12-26T04:30:15.074Z,5.20
2022-12-26T04:32:56.327Z,7.20
2022-12-26T04:35:36.950Z,6.57
2022-12-26T04:38:16.348Z,6.33
2022-12-26T04:40:57.471Z,7.20
2022-12-26T04:43:50.115Z,7.07
2022-12-26T04:46:12.373Z,7.10
2022-12-26T04:48:51.015Z,7.33
2022-12-26T04:51:12.352Z,7.40
2022-12-26T04:53:33.848Z,6.57
2022-12-26T04:55:54.844Z,6.97
2022-12-26T04:58:16.108Z,6.87
2022-12-26T05:00:38.783Z,6.70
2022-12-26T05:03:19.520Z,6.70
2022-12-26T05:06:08.019Z,6.57
2022-12-26T05:08:50.004Z,6.70
2022-12-26T05:11:11.200Z,6.13
2022-12-26T05:13:32.292Z,6.40
2022-12-26T05:16:12.400Z,5.70
2022-12-26T05:18:51.061Z,5.80
2022-12-26T05:21:45.329Z,6.00
2022-12-26T05:24:24.805Z,6.57
2022-12-26T05:27:09.159Z,5.53
2022-12-26T05:29:30.361Z,4.90
2022-12-26T05:31:52.749Z,5.47
2022-12-26T05:34:15.978Z,5.63
2022-12-26T05:36:39.057Z,5.40
2022-12-26T05:39:00.655Z,5.60
2022-12-26T05:41:22.056Z,6.00
2022-12-26T05:43:43.457Z,5.30
2022-12-26T05:46:04.756Z,5.43
2022-12-26T05:48:28.739Z,6.07
2022-12-26T05:50:49.969Z,5.50
2022-12-26T05:53:11.334Z,5.63
2022-12-26T05:55:32.505Z,5.70
2022-12-26T05:57:53.685Z,5.70
2022-12-26T06:00:15.425Z,5.20
2022-12-26T06:02:36.774Z,5.63
2022-12-26T06:04:59.485Z,5.67
2022-12-26T06:07:22.018Z,7.50
2022-12-26T06:09:43.479Z,5.53
2022-12-26T06:12:04.953Z,7.80
2022-12-26T06:14:26.151Z,11.20
2022-12-26T06:16:47.459Z,6.83
2022-12-26T06:19:08.608Z,4.90
2022-12-26T06:21:31.141Z,4.83
2022-12-26T06:23:52.382Z,4.30
2022-12-26T06:26:13.686Z,4.47
2022-12-26T06:28:35.159Z,3.90
2022-12-26T06:31:02.212Z,4.17
2022-12-26T06:33:23.495Z,5.30
2022-12-26T06:35:44.960Z,5.47
2022-12-26T06:38:07.576Z,4.77
2022-12-26T06:40:29.024Z,4.90
2022-12-26T06:42:50.070Z,5.10
2022-12-26T06:45:11.759Z,5.10
2022-12-26T06:47:33.109Z,6.37
2022-12-26T06:49:54.263Z,4.33
2022-12-26T06:52:15.508Z,4.70
2022-12-26T06:54:38.103Z,4.40
2022-12-26T06:56:59.340Z,4.47
2022-12-26T06:59:20.621Z,3.83
2022-12-26T07:01:42.058Z,8.40
2022-12-26T07:04:04.261Z,7.97
2022-12-26T07:06:26.142Z,5.10
2022-12-26T07:08:47.493Z,4.33
2022-12-26T07:11:15.189Z,92.40
2022-12-26T07:13:36.456Z,44.93
2022-12-26T07:15:59.708Z,98.33
2022-12-26T07:18:20.822Z,72.40
2022-12-26T07:20:41.949Z,7.03
2022-12-26T07:23:03.180Z,4.63
2022-12-26T07:25:24.496Z,9.53
2022-12-26T07:27:46.997Z,8.90
2022-12-26T07:30:09.006Z,4.53
2022-12-26T07:32:30.119Z,4.53
2022-12-26T07:34:51.742Z,4.77
2022-12-26T07:37:12.955Z,5.20
2022-12-26T07:39:35.606Z,4.00
2022-12-26T07:41:59.690Z,3.43
2022-12-26T07:44:21.806Z,3.90
2022-12-26T07:46:43.297Z,5.73
2022-12-26T07:49:04.556Z,4.50
2022-12-26T07:51:25.746Z,4.10
2022-12-26T07:53:47.212Z,4.17
2022-12-26T07:56:08.830Z,3.70
2022-12-26T07:58:29.841Z,4.17
2022-12-26T08:00:52.522Z,4.00
2022-12-26T08:03:13.866Z,3.93
2022-12-26T08:05:35.059Z,4.00
2022-12-26T08:07:56.489Z,3.93
2022-12-26T08:10:18.073Z,4.50
2022-12-26T08:12:39.106Z,4.93
2022-12-26T08:15:00.419Z,4.17
2022-12-26T08:17:22.981Z,4.10
2022-12-26T08:19:44.162Z,4.20
2022-12-26T08:22:05.288Z,4.40
2022-12-26T08:24:26.635Z,4.13
2022-12-26T08:26:47.833Z,4.67
2022-12-26T08:29:09.261Z,5.00
2022-12-26T08:31:30.441Z,4.60
2022-12-26T08:33:55.492Z,4.67
2022-12-26T08:36:19.035Z,4.70
2022-12-26T08:38:40.913Z,4.30
2022-12-26T08:41:02.375Z,7.10
2022-12-26T08:44:23.593Z,5.13
2022-12-26T08:46:06.090Z,4.77
2022-12-26T08:48:27.241Z,5.30
2022-12-26T08:50:49.857Z,4.83
2022-12-26T08:53:11.341Z,4.90
2022-12-26T08:55:32.636Z,5.13
2022-12-26T08:57:54.098Z,5.43
2022-12-26T09:00:16.023Z,5.63
2022-12-26T09:02:37.497Z,5.33
2022-12-26T09:04:58.629Z,6.77
2022-12-26T09:07:21.166Z,6.60
2022-12-26T09:09:42.487Z,8.17
2022-12-26T09:12:03.693Z,6.27
2022-12-26T09:14:24.814Z,7.20
2022-12-26T09:16:50.732Z,12.83
2022-12-26T09:19:13.972Z,10.00
2022-12-26T09:21:35.365Z,10.10
2022-12-26T09:24:01.993Z,10.60
2022-12-26T09:26:23.130Z,9.63
2022-12-26T09:28:45.926Z,8.07
2022-12-26T09:31:07.770Z,9.77
2022-12-26T09:33:29.177Z,9.67
2022-12-26T09:35:50.069Z,9.50
2022-12-26T09:38:11.184Z,9.40
2022-12-26T09:40:45.599Z,9.67
2022-12-26T09:43:18.736Z,9.27
2022-12-26T09:45:46.646Z,8.50
2022-12-26T09:48:11.938Z,8.53
2022-12-26T09:50:39.553Z,9.07
2022-12-26T09:53:05.436Z,8.20
2022-12-26T09:55:30.127Z,7.87
2022-12-26T09:57:53.431Z,8.60
2022-12-26T10:00:18.875Z,8.40
2022-12-26T10:02:40.301Z,8.57
2022-12-26T10:05:01.893Z,8.87
2022-12-26T10:07:26.714Z,9.33
2022-12-26T10:09:57.338Z,9.70
2022-12-26T10:12:29.923Z,8.07
2022-12-26T10:14:55.004Z,8.60
2022-12-26T10:17:19.536Z,8.33
2022-12-26T10:19:45.657Z,8.10
2022-12-26T10:22:16.354Z,8.10
2022-12-26T10:24:39.725Z,7.40
2022-12-26T10:27:02.849Z,9.20
2022-12-26T10:29:26.784Z,8.00
2022-12-26T10:31:50.765Z,9.00
2022-12-26T10:34:13.160Z,9.13
2022-12-26T10:36:36.246Z,11.60
2022-12-26T10:38:59.725Z,13.37
2022-12-26T10:41:24.328Z,11.07
2022-12-26T10:43:45.678Z,9.90
2022-12-26T10:46:17.624Z,11.67
2022-12-26T10:48:40.582Z,10.93
2022-12-26T10:51:02.064Z,13.27
2022-12-26T10:53:23.299Z,11.60
2022-12-26T10:55:44.720Z,10.50
2022-12-26T10:58:07.837Z,13.60
2022-12-26T11:00:29.248Z,10.80
2022-12-26T11:03:03.410Z,10.67
2022-12-26T11:05:48.949Z,10.23
2022-12-26T11:08:08.178Z,10.17
2022-12-26T11:10:30.249Z,13.17
2022-12-26T11:12:52.950Z,11.50
2022-12-26T11:15:19.675Z,11.20
2022-12-26T11:17:43.790Z,10.40
2022-12-26T11:20:22.399Z,12.77
2022-12-26T11:22:45.388Z,11.30
2022-12-26T11:25:21.018Z,12.23
2022-12-26T11:27:44.219Z,10.23
2022-12-26T11:30:12.063Z,10.80
2022-12-26T11:32:33.561Z,11.07
2022-12-26T11:34:54.814Z,10.03
2022-12-26T11:37:24.625Z,10.53
2022-12-26T11:39:51.455Z,11.47
2022-12-26T11:42:14.743Z,10.63
2022-12-26T11:44:40.956Z,10.90
2022-12-26T11:47:08.747Z,10.60
2022-12-26T11:49:33.141Z,12.60
2022-12-26T11:51:59.204Z,9.70
2022-12-26T11:54:23.043Z,10.20
2022-12-26T11:56:45.935Z,8.57
2022-12-26T11:59:14.570Z,6.10
2022-12-26T12:01:35.900Z,6.50
2022-12-26T12:03:58.758Z,6.67
2022-12-26T12:06:38.601Z,6.23
2022-12-26T12:09:06.019Z,5.83
2022-12-26T12:11:33.528Z,6.30
2022-12-26T12:14:11.434Z,5.70
2022-12-26T12:16:36.816Z,6.30
2022-12-26T12:19:00.817Z,4.93
2022-12-26T12:21:30.812Z,6.07
2022-12-26T12:23:57.733Z,5.77
2022-12-26T12:26:21.002Z,5.73
2022-12-26T12:28:58.577Z,5.73
2022-12-26T12:31:25.318Z,5.97
2022-12-26T12:33:49.940Z,5.53
2022-12-26T12:36:12.451Z,5.47
2022-12-26T12:38:35.475Z,4.97
2022-12-26T12:41:01.820Z,5.40
2022-12-26T12:43:28.557Z,4.83
2022-12-26T12:45:54.838Z,18.13
2022-12-26T12:48:23.139Z,6.63
2022-12-26T12:50:54.724Z,10.33
2022-12-26T12:53:25.084Z,23.33
2022-12-26T12:56:00.836Z,3.30
2022-12-26T12:58:24.788Z,5.93
2022-12-26T13:00:48.423Z,7.23
2022-12-26T13:03:11.440Z,2.20
2022-12-26T13:05:40.074Z,2.50
2022-12-26T13:08:04.009Z,17.67
2022-12-26T13:10:28.404Z,6.37
2022-12-26T13:12:50.717Z,84.57
2022-12-26T13:15:20.004Z,2.67
2022-12-26T13:17:46.498Z,4.07
2022-12-26T13:20:14.331Z,2.30
2022-12-26T13:22:53.990Z,14.13
2022-12-26T13:25:15.502Z,3.70
2022-12-26T13:27:37.649Z,9.33
2022-12-26T13:29:58.634Z,2.20
2022-12-26T13:32:22.206Z,2.30
2022-12-26T13:34:43.969Z,2.57
2022-12-26T13:37:05.358Z,6.63
2022-12-26T13:39:44.550Z,7.23
2022-12-26T13:42:37.921Z,3.60
2022-12-26T13:45:27.067Z,3.63
2022-12-26T13:47:48.119Z,2.20
2022-12-26T13:50:30.551Z,2.37
2022-12-26T13:52:51.940Z,3.70
2022-12-26T13:55:28.951Z,3.20
2022-12-26T13:58:07.841Z,2.87
2022-12-26T14:00:43.249Z,3.40
2022-12-26T14:03:25.877Z,4.03
2022-12-26T14:06:08.142Z,4.23
2022-12-26T14:08:34.984Z,3.50
2022-12-26T14:11:03.068Z,3.53
2022-12-26T14:13:49.493Z,3.77
2022-12-26T14:16:19.190Z,3.10
2022-12-26T14:18:45.928Z,2.93
2022-12-26T14:21:20.724Z,4.00
2022-12-26T14:23:45.690Z,4.07
2022-12-26T14:26:15.538Z,7.13
2022-12-26T14:28:47.132Z,4.03
2022-12-26T14:31:14.417Z,4.13
2022-12-26T14:33:37.990Z,3.63
2022-12-26T14:36:06.855Z,2.53
2022-12-26T14:38:33.183Z,2.87
2022-12-26T14:41:02.540Z,2.97
2022-12-26T14:43:30.327Z,3.70
2022-12-26T14:45:52.285Z,2.70
2022-12-26T14:48:32.447Z,2.97
2022-12-26T14:50:56.042Z,2.70
2022-12-26T14:53:32.322Z,2.70
2022-12-26T14:55:54.682Z,2.20
2022-12-26T14:58:30.843Z,2.60
2022-12-26T15:00:52.436Z,2.70
2022-12-26T15:03:30.817Z,2.63
2022-12-26T15:05:52.158Z,4.03
2022-12-26T15:08:23.949Z,3.20
2022-12-26T15:11:10.643Z,6.00
2022-12-26T15:13:43.843Z,5.57
2022-12-26T15:16:13.246Z,5.67
2022-12-26T15:18:53.185Z,3.70
2022-12-26T15:21:29.032Z,5.47
2022-12-26T15:24:29.930Z,1.90
2022-12-26T15:27:09.454Z,2.60
2022-12-26T15:29:38.865Z,2.00
2022-12-26T15:32:05.393Z,3.43
2022-12-26T15:34:33.020Z,3.47
2022-12-26T15:36:56.624Z,3.30
2022-12-26T15:39:23.167Z,2.50
2022-12-26T15:41:46.873Z,2.37
2022-12-26T15:44:14.338Z,1.70
2022-12-26T15:46:37.435Z,4.10
2022-12-26T15:49:07.365Z,2.40
2022-12-26T15:51:33.806Z,10.37
2022-12-26T15:54:00.441Z,8.90
2022-12-26T15:56:29.136Z,3.33
2022-12-26T15:58:57.144Z,9.20
2022-12-26T16:01:33.594Z,7.90
2022-12-26T16:03:56.706Z,6.37
2022-12-26T16:06:28.000Z,7.53
2022-12-26T16:09:10.007Z,5.67
2022-12-26T16:11:43.225Z,4.77
2022-12-26T16:14:05.130Z,39.67
2022-12-26T16:16:31.463Z,5.43
2022-12-26T16:18:52.825Z,5.13
2022-12-26T16:21:37.525Z,4.97
2022-12-26T16:23:58.857Z,5.63
2022-12-26T16:26:23.796Z,5.80
2022-12-26T16:28:46.699Z,72.20
2022-12-26T16:31:08.255Z,33.80
2022-12-26T16:33:30.869Z,30.37
2022-12-26T16:35:57.538Z,16.40
2022-12-26T16:38:25.318Z,89.43
2022-12-26T16:40:47.297Z,238.03
2022-12-26T16:43:23.049Z,361.13
2022-12-26T16:45:46.439Z,92.10
2022-12-26T16:48:08.442Z,28.47
2022-12-26T16:50:32.801Z,33.33
2022-12-26T16:53:02.037Z,45.90
2022-12-26T16:55:34.057Z,39.90
2022-12-26T16:57:57.410Z,28.87
2022-12-26T17:00:20.131Z,25.03
2022-12-26T17:02:45.427Z,14.30
2022-12-26T17:05:07.685Z,12.17
2022-12-26T17:07:29.399Z,3.53
2022-12-26T17:09:53.300Z,2.77
2022-12-26T17:12:19.235Z,2.57
2022-12-26T17:14:41.471Z,2.60
2022-12-26T17:17:04.562Z,2.50
2022-12-26T17:19:29.615Z,2.53
2022-12-26T17:22:23.881Z,4.20
2022-12-26T17:24:45.766Z,2.17
2022-12-26T17:27:10.876Z,1.93
2022-12-26T17:29:39.156Z,2.50
2022-12-26T17:32:00.189Z,6.07
2022-12-26T17:34:23.772Z,7.63
2022-12-26T17:37:17.776Z,8.37
2022-12-26T17:39:28.013Z,4.33
2022-12-26T17:41:51.530Z,7.50
2022-12-26T17:44:36.735Z,6.73
2022-12-26T17:46:57.694Z,4.60
2022-12-26T17:49:18.624Z,3.67
2022-12-26T17:51:39.959Z,2.90
2022-12-26T17:54:02.594Z,2.90
2022-12-26T17:56:27.158Z,3.00
2022-12-26T17:58:48.965Z,2.70
2022-12-26T18:01:12.725Z,2.33
2022-12-26T18:03:36.126Z,2.93
2022-12-26T18:05:57.701Z,3.50
2022-12-26T18:08:24.469Z,5.73
2022-12-26T18:10:47.181Z,4.23
2022-12-26T18:13:15.996Z,5.00
2022-12-26T18:15:37.315Z,7.90
2022-12-26T18:17:58.849Z,6.87
2022-12-26T18:20:21.015Z,5.20
2022-12-26T18:22:42.221Z,3.73
2022-12-26T18:25:03.680Z,2.37
2022-12-26T18:27:28.483Z,2.00
2022-12-26T18:29:50.298Z,2.00
2022-12-26T18:32:13.621Z,2.37
2022-12-26T18:34:34.844Z,2.43
2022-12-26T18:36:56.219Z,2.37
2022-12-26T18:39:17.710Z,1.90
2022-12-26T18:41:38.753Z,1.97
2022-12-26T18:44:01.386Z,2.10
2022-12-26T18:46:23.735Z,2.33
2022-12-26T18:48:44.972Z,2.00
2022-12-26T18:51:06.841Z,3.07
2022-12-26T18:53:27.999Z,2.20
2022-12-26T18:55:49.438Z,3.13
2022-12-26T18:58:11.035Z,3.30
2022-12-26T19:00:34.062Z,1.73
2022-12-26T19:02:55.782Z,2.00
2022-12-26T19:05:18.812Z,1.50
2022-12-26T19:07:39.869Z,1.23
2022-12-26T19:10:01.022Z,1.73
2022-12-26T19:12:22.497Z,1.43
2022-12-26T19:14:44.623Z,2.57
2022-12-26T19:17:07.314Z,1.30
2022-12-26T19:19:29.714Z,1.20
2022-12-26T19:21:50.772Z,1.43
2022-12-26T19:24:12.366Z,1.87
2022-12-26T19:26:33.524Z,1.67
2022-12-26T19:28:55.951Z,2.60
2022-12-26T19:31:17.543Z,1.93
2022-12-26T19:33:40.199Z,1.80
2022-12-26T19:36:01.281Z,5.23
2022-12-26T19:38:23.133Z,2.00
2022-12-26T19:40:44.371Z,1.23
2022-12-26T19:43:05.978Z,1.87
2022-12-26T19:45:27.217Z,1.63
2022-12-26T19:47:48.561Z,1.90
2022-12-26T19:50:11.820Z,1.87
2022-12-26T19:52:34.308Z,2.83
2022-12-26T19:54:55.571Z,1.73
2022-12-26T19:57:16.770Z,1.33
2022-12-26T19:59:38.216Z,1.80
2022-12-26T20:01:59.685Z,1.80
2022-12-26T20:04:21.265Z,2.67
2022-12-26T20:06:44.037Z,2.50
2022-12-26T20:09:06.789Z,2.33
2022-12-26T20:11:29.149Z,3.10
2022-12-26T20:13:50.450Z,1.80
2022-12-26T20:16:37.469Z,1.90
2022-12-26T20:18:54.829Z,2.23
2022-12-26T20:21:16.717Z,2.13
2022-12-26T20:23:39.354Z,2.20
2022-12-26T20:26:00.842Z,1.70
2022-12-26T20:28:21.907Z,3.23
2022-12-26T20:30:43.077Z,3.80
2022-12-26T20:33:04.521Z,10.13
2022-12-26T20:35:25.759Z,3.70
2022-12-26T20:37:47.094Z,2.97
2022-12-26T20:40:10.723Z,2.13
2022-12-26T20:42:32.050Z,2.70
2022-12-26T20:44:53.535Z,2.60
2022-12-26T20:47:14.851Z,3.00
2022-12-26T20:49:36.341Z,7.80
2022-12-26T20:51:57.800Z,3.67
2022-12-26T20:54:18.927Z,3.20
2022-12-26T20:56:42.048Z,4.43
2022-12-26T20:59:03.394Z,2.77
2022-12-26T21:01:24.717Z,2.20
2022-12-26T21:03:46.001Z,4.23
2022-12-26T21:06:08.395Z,20.93
2022-12-26T21:08:29.294Z,4.87
2022-12-26T21:10:50.406Z,4.33
2022-12-26T21:13:12.950Z,3.10
2022-12-26T21:15:34.025Z,2.83
2022-12-26T21:17:55.154Z,2.60
2022-12-26T21:20:17.502Z,2.70
2022-12-26T21:22:38.916Z,2.77
2022-12-26T21:25:00.128Z,3.13
2022-12-26T21:27:21.636Z,2.50
2022-12-26T21:29:44.406Z,2.43
2022-12-26T21:32:06.214Z,2.10
2022-12-26T21:34:28.688Z,2.83
2022-12-26T21:37:04.003Z,2.73
2022-12-26T21:39:24.803Z,3.60
2022-12-26T21:41:46.138Z,2.33
2022-12-26T21:44:07.388Z,2.57
2022-12-26T21:46:29.906Z,3.30
2022-12-26T21:48:51.043Z,2.50
2022-12-26T21:51:12.310Z,3.87
2022-12-26T21:53:33.409Z,1.93
2022-12-26T21:55:53.493Z,3.17
2022-12-26T21:58:14.859Z,3.63
2022-12-26T22:00:36.279Z,7.53
2022-12-26T22:03:16.172Z,2.23
2022-12-26T22:05:38.157Z,2.57
2022-12-26T22:08:00.476Z,2.03
2022-12-26T22:10:39.447Z,2.80
2022-12-26T22:13:01.084Z,1.80
2022-12-26T22:15:40.845Z,2.77
2022-12-26T22:18:03.405Z,4.33
2022-12-26T22:20:24.889Z,2.87
2022-12-26T22:22:46.124Z,4.33
2022-12-26T22:25:10.343Z,2.60
2022-12-26T22:27:31.668Z,2.07
2022-12-26T22:29:53.049Z,3.53
2022-12-26T22:32:14.361Z,2.50
2022-12-26T22:34:37.110Z,2.00
2022-12-26T22:36:58.289Z,2.40
2022-12-26T22:39:19.653Z,2.23
2022-12-26T22:41:41.163Z,1.53
2022-12-26T22:44:02.488Z,2.27
2022-12-26T22:46:23.924Z,1.73
2022-12-26T22:48:45.174Z,1.80
2022-12-26T22:51:07.988Z,2.87
2022-12-26T22:53:29.950Z,2.33
2022-12-26T22:55:52.069Z,2.50
2022-12-26T22:58:13.292Z,3.07
2022-12-26T23:00:34.615Z,3.50
2022-12-26T23:02:56.025Z,2.13
2022-12-26T23:05:17.685Z,3.00
2022-12-26T23:07:40.606Z,2.10
2022-12-26T23:10:01.974Z,2.20
2022-12-26T23:12:41.138Z,2.57
2022-12-26T23:15:02.367Z,2.43
2022-12-26T23:17:37.507Z,1.87
2022-12-26T23:20:16.504Z,2.07
2022-12-26T23:22:37.856Z,3.57
2022-12-26T23:25:00.278Z,1.97
2022-12-26T23:27:39.214Z,2.93
2022-12-26T23:30:19.072Z,4.17
2022-12-26T23:32:40.736Z,2.30
2022-12-26T23:35:01.933Z,2.43
2022-12-26T23:37:23.330Z,2.37
2022-12-26T23:39:44.622Z,2.60
2022-12-26T23:42:07.600Z,1.83
2022-12-26T23:44:28.865Z,1.40
2022-12-26T23:46:50.311Z,2.30
2022-12-26T23:49:12.989Z,1.53
2022-12-26T23:51:34.225Z,2.23
2022-12-26T23:53:55.589Z,3.40
2022-12-26T23:56:16.946Z,1.83
2022-12-26T23:58:39.980Z,3.77
